Abshers, North Carolina
Current Conditions -  °F | °C
As of 7:55 PM on Friday 24 Oct 2014 (Local Time) from KUKF Reporting Station
Clear Clear  
Wind Chill: 11°   Ceiling: Unl
Heat Index: 11°   Visibility: 10mi
Dew Point:   Wind: 3mph
Humidity: 71%   Direction: 350°N
Pressure: 30.06"   Gusts: NA
Location:  36.345°N, 81.0285°W
Report Text: KUKF 242355Z AUTO 35003KT 10SM CLR 11/06 A3006 RMK AO2
Loading
Personal Weather Stations






























Interactive Weather Map
Tropical Storm Tracking
New forecast layout! Learn more

10-Day Weather Forecast

Advertisements
Track Severe Weather on mobile